sensor_id;sensor_type;location;lat;lon;timestamp;temperature;humidity
61151;DHT22;47029;50.994;2.876;2022-10-26T00:03:01;15.10;99.90
61151;DHT22;47029;50.994;2.876;2022-10-26T00:05:27;15.00;99.90
61151;DHT22;47029;50.994;2.876;2022-10-26T00:08:00;15.10;99.90
61151;DHT22;47029;50.994;2.876;2022-10-26T00:10:30;15.20;99.90
61151;DHT22;47029;50.994;2.876;2022-10-26T00:13:00;15.30;99.90
61151;DHT22;47029;50.994;2.876;2022-10-26T00:18:35;14.90;99.90
61151;DHT22;47029;50.994;2.876;2022-10-26T00:21:03;14.90;99.90
61151;DHT22;47029;50.994;2.876;2022-10-26T00:23:32;14.90;99.90
61151;DHT22;47029;50.994;2.876;2022-10-26T00:25:58;14.90;99.90
61151;DHT22;47029;50.994;2.876;2022-10-26T00:28:29;15.00;99.90
61151;DHT22;47029;50.994;2.876;2022-10-26T00:31:01;14.90;99.90
61151;DHT22;47029;50.994;2.876;2022-10-26T00:33:36;13.60;99.90
61151;DHT22;47029;50.994;2.876;2022-10-26T00:36:14;15.00;99.90
61151;DHT22;47029;50.994;2.876;2022-10-26T00:38:56;15.00;99.90
61151;DHT22;47029;50.994;2.876;2022-10-26T00:41:37;14.80;99.90
61151;DHT22;47029;50.994;2.876;2022-10-26T00:49:56;15.00;99.90
61151;DHT22;47029;50.994;2.876;2022-10-26T00:52:42;16.20;99.90
61151;DHT22;47029;50.994;2.876;2022-10-26T00:55:12;15.10;99.90
61151;DHT22;47029;50.994;2.876;2022-10-26T00:57:48;14.90;99.90
61151;DHT22;47029;50.994;2.876;2022-10-26T01:00:28;15.00;99.90
61151;DHT22;47029;50.994;2.876;2022-10-26T01:03:03;15.00;99.90
61151;DHT22;47029;50.994;2.876;2022-10-26T01:05:40;15.00;99.90
61151;DHT22;47029;50.994;2.876;2022-10-26T01:08:35;14.90;99.90
61151;DHT22;47029;50.994;2.876;2022-10-26T01:11:11;13.90;99.90
61151;DHT22;47029;50.994;2.876;2022-10-26T01:13:38;15.10;99.90
61151;DHT22;47029;50.994;2.876;2022-10-26T01:28:49;15.30;99.90
61151;DHT22;47029;50.994;2.876;2022-10-26T01:34:41;15.30;99.90
61151;DHT22;47029;50.994;2.876;2022-10-26T01:37:23;15.20;99.90
61151;DHT22;47029;50.994;2.876;2022-10-26T01:40:20;15.10;99.90
61151;DHT22;47029;50.994;2.876;2022-10-26T01:43:06;15.30;99.90
61151;DHT22;47029;50.994;2.876;2022-10-26T01:45:52;15.20;99.90
61151;DHT22;47029;50.994;2.876;2022-10-26T01:48:25;15.20;99.90
61151;DHT22;47029;50.994;2.876;2022-10-26T01:50:57;15.20;99.90
61151;DHT22;47029;50.994;2.876;2022-10-26T01:53:30;15.20;99.90
61151;DHT22;47029;50.994;2.876;2022-10-26T01:56:02;14.60;99.90
61151;DHT22;47029;50.994;2.876;2022-10-26T02:05:38;15.40;99.90
61151;DHT22;47029;50.994;2.876;2022-10-26T02:14:17;15.30;99.90
61151;DHT22;47029;50.994;2.876;2022-10-26T02:20:32;15.30;99.90
61151;DHT22;47029;50.994;2.876;2022-10-26T02:23:22;15.80;99.90
61151;DHT22;47029;50.994;2.876;2022-10-26T02:25:55;14.60;99.90
61151;DHT22;47029;50.994;2.876;2022-10-26T02:28:34;15.30;99.90
61151;DHT22;47029;50.994;2.876;2022-10-26T02:31:07;15.40;99.90
61151;DHT22;47029;50.994;2.876;2022-10-26T02:33:53;15.40;99.90
61151;DHT22;47029;50.994;2.876;2022-10-26T02:36:29;15.40;99.90
61151;DHT22;47029;50.994;2.876;2022-10-26T02:39:01;15.40;99.90
61151;DHT22;47029;50.994;2.876;2022-10-26T02:41:35;15.70;99.90
61151;DHT22;47029;50.994;2.876;2022-10-26T02:44:07;15.40;99.90
61151;DHT22;47029;50.994;2.876;2022-10-26T02:46:47;15.30;99.90
61151;DHT22;47029;50.994;2.876;2022-10-26T02:49:16;15.00;99.90
61151;DHT22;47029;50.994;2.876;2022-10-26T02:57:47;15.30;99.90
61151;DHT22;47029;50.994;2.876;2022-10-26T03:00:34;15.10;99.90
61151;DHT22;47029;50.994;2.876;2022-10-26T03:03:14;15.40;99.90
61151;DHT22;47029;50.994;2.876;2022-10-26T03:05:56;14.20;99.90
61151;DHT22;47029;50.994;2.876;2022-10-26T03:08:25;15.40;99.90
61151;DHT22;47029;50.994;2.876;2022-10-26T03:13:47;15.30;99.90
61151;DHT22;47029;50.994;2.876;2022-10-26T03:16:19;14.30;99.90
61151;DHT22;47029;50.994;2.876;2022-10-26T03:19:17;15.40;99.90
61151;DHT22;47029;50.994;2.876;2022-10-26T03:21:52;15.30;99.90
61151;DHT22;47029;50.994;2.876;2022-10-26T03:24:21;15.50;99.90
61151;DHT22;47029;50.994;2.876;2022-10-26T03:26:48;15.30;99.90
61151;DHT22;47029;50.994;2.876;2022-10-26T03:29:21;15.40;99.90
61151;DHT22;47029;50.994;2.876;2022-10-26T03:32:42;16.10;99.90
61151;DHT22;47029;50.994;2.876;2022-10-26T03:35:25;15.30;99.90
61151;DHT22;47029;50.994;2.876;2022-10-26T03:37:54;15.30;99.90
61151;DHT22;47029;50.994;2.876;2022-10-26T03:40:25;15.40;99.90
61151;DHT22;47029;50.994;2.876;2022-10-26T03:42:53;15.40;99.90
61151;DHT22;47029;50.994;2.876;2022-10-26T03:45:19;15.40;99.90
61151;DHT22;47029;50.994;2.876;2022-10-26T03:47:59;15.40;99.90
61151;DHT22;47029;50.994;2.876;2022-10-26T03:50:25;15.40;99.90
61151;DHT22;47029;50.994;2.876;2022-10-26T03:53:09;15.40;99.90
61151;DHT22;47029;50.994;2.876;2022-10-26T03:55:44;15.50;99.90
61151;DHT22;47029;50.994;2.876;2022-10-26T03:58:11;15.40;99.90
61151;DHT22;47029;50.994;2.876;2022-10-26T04:00:37;15.50;99.90
61151;DHT22;47029;50.994;2.876;2022-10-26T04:03:12;15.90;99.90
61151;DHT22;47029;50.994;2.876;2022-10-26T04:05:42;15.40;99.90
61151;DHT22;47029;50.994;2.876;2022-10-26T04:08:08;15.50;99.90
61151;DHT22;47029;50.994;2.876;2022-10-26T04:10:44;15.50;99.90
61151;DHT22;47029;50.994;2.876;2022-10-26T04:13:14;15.50;99.90
61151;DHT22;47029;50.994;2.876;2022-10-26T04:15:40;15.50;99.90
61151;DHT22;47029;50.994;2.876;2022-10-26T04:18:35;15.50;99.90
61151;DHT22;47029;50.994;2.876;2022-10-26T04:21:01;15.60;99.90
61151;DHT22;47029;50.994;2.876;2022-10-26T04:23:32;15.50;99.90
61151;DHT22;47029;50.994;2.876;2022-10-26T04:28:46;15.50;99.90
61151;DHT22;47029;50.994;2.876;2022-10-26T04:31:37;15.40;99.90
61151;DHT22;47029;50.994;2.876;2022-10-26T04:34:09;15.30;99.90
61151;DHT22;47029;50.994;2.876;2022-10-26T04:36:35;15.30;99.90
61151;DHT22;47029;50.994;2.876;2022-10-26T04:39:27;15.50;99.90
61151;DHT22;47029;50.994;2.876;2022-10-26T04:41:58;15.40;99.90
61151;DHT22;47029;50.994;2.876;2022-10-26T04:44:30;15.40;99.90
61151;DHT22;47029;50.994;2.876;2022-10-26T04:47:01;15.30;99.90
61151;DHT22;47029;50.994;2.876;2022-10-26T04:49:42;15.40;99.90
61151;DHT22;47029;50.994;2.876;2022-10-26T04:52:10;14.90;99.90
61151;DHT22;47029;50.994;2.876;2022-10-26T04:54:51;14.90;99.90
61151;DHT22;47029;50.994;2.876;2022-10-26T04:57:33;15.30;99.90
61151;DHT22;47029;50.994;2.876;2022-10-26T05:00:03;15.40;99.90
61151;DHT22;47029;50.994;2.876;2022-10-26T05:02:38;15.30;99.90
61151;DHT22;47029;50.994;2.876;2022-10-26T05:05:04;15.30;99.90
61151;DHT22;47029;50.994;2.876;2022-10-26T05:07:43;15.30;99.90
61151;DHT22;47029;50.994;2.876;2022-10-26T05:12:57;15.00;99.90
61151;DHT22;47029;50.994;2.876;2022-10-26T05:15:27;15.20;99.90
61151;DHT22;47029;50.994;2.876;2022-10-26T05:18:01;15.30;99.90
61151;DHT22;47029;50.994;2.876;2022-10-26T05:20:32;14.50;99.90
61151;DHT22;47029;50.994;2.876;2022-10-26T05:23:05;15.10;99.90
61151;DHT22;47029;50.994;2.876;2022-10-26T05:25:35;15.10;99.90
61151;DHT22;47029;50.994;2.876;2022-10-26T05:28:09;15.10;99.90
61151;DHT22;47029;50.994;2.876;2022-10-26T05:30:58;14.40;99.90
61151;DHT22;47029;50.994;2.876;2022-10-26T05:33:24;15.00;99.90
61151;DHT22;47029;50.994;2.876;2022-10-26T05:35:53;15.00;99.90
61151;DHT22;47029;50.994;2.876;2022-10-26T05:38:19;15.00;99.90
61151;DHT22;47029;50.994;2.876;2022-10-26T05:40:50;15.00;99.90
61151;DHT22;47029;50.994;2.876;2022-10-26T05:43:21;15.00;99.90
61151;DHT22;47029;50.994;2.876;2022-10-26T05:45:49;15.10;99.90
61151;DHT22;47029;50.994;2.876;2022-10-26T05:48:14;15.10;99.90
61151;DHT22;47029;50.994;2.876;2022-10-26T05:50:41;15.10;99.90
61151;DHT22;47029;50.994;2.876;2022-10-26T05:53:06;15.10;99.90
61151;DHT22;47029;50.994;2.876;2022-10-26T05:55:33;14.90;99.90
61151;DHT22;47029;50.994;2.876;2022-10-26T05:57:59;14.90;99.90
61151;DHT22;47029;50.994;2.876;2022-10-26T06:00:29;14.90;99.90
61151;DHT22;47029;50.994;2.876;2022-10-26T06:05:52;15.00;99.90
61151;DHT22;47029;50.994;2.876;2022-10-26T06:08:26;15.00;99.90
61151;DHT22;47029;50.994;2.876;2022-10-26T06:10:54;14.90;99.90
61151;DHT22;47029;50.994;2.876;2022-10-26T06:13:21;14.90;99.90
61151;DHT22;47029;50.994;2.876;2022-10-26T06:27:24;14.80;99.90
61151;DHT22;47029;50.994;2.876;2022-10-26T06:29:58;14.70;99.90
61151;DHT22;47029;50.994;2.876;2022-10-26T06:32:25;14.70;99.90
61151;DHT22;47029;50.994;2.876;2022-10-26T06:37:51;14.60;99.90
61151;DHT22;47029;50.994;2.876;2022-10-26T06:40:19;14.70;99.90
61151;DHT22;47029;50.994;2.876;2022-10-26T06:42:51;14.70;99.90
61151;DHT22;47029;50.994;2.876;2022-10-26T06:45:17;14.80;99.90
61151;DHT22;47029;50.994;2.876;2022-10-26T06:48:03;14.70;99.90
61151;DHT22;47029;50.994;2.876;2022-10-26T06:50:52;14.80;99.90
61151;DHT22;47029;50.994;2.876;2022-10-26T06:53:23;14.80;99.90
61151;DHT22;47029;50.994;2.876;2022-10-26T06:55:50;14.70;99.90
61151;DHT22;47029;50.994;2.876;2022-10-26T06:58:20;14.70;99.90
61151;DHT22;47029;50.994;2.876;2022-10-26T07:00:50;14.70;99.90
61151;DHT22;47029;50.994;2.876;2022-10-26T07:03:16;14.60;99.90
61151;DHT22;47029;50.994;2.876;2022-10-26T07:05:43;14.70;99.90
61151;DHT22;47029;50.994;2.876;2022-10-26T07:08:09;14.70;99.90
61151;DHT22;47029;50.994;2.876;2022-10-26T07:10:35;14.90;99.90
61151;DHT22;47029;50.994;2.876;2022-10-26T07:13:07;14.90;99.90
61151;DHT22;47029;50.994;2.876;2022-10-26T07:15:35;15.00;99.90
61151;DHT22;47029;50.994;2.876;2022-10-26T07:18:02;15.10;99.90
61151;DHT22;47029;50.994;2.876;2022-10-26T07:20:30;15.20;99.90
61151;DHT22;47029;50.994;2.876;2022-10-26T07:22:57;15.10;99.90
61151;DHT22;47029;50.994;2.876;2022-10-26T07:25:27;15.20;99.90
61151;DHT22;47029;50.994;2.876;2022-10-26T07:28:00;15.40;99.90
61151;DHT22;47029;50.994;2.876;2022-10-26T07:30:27;15.60;99.90
61151;DHT22;47029;50.994;2.876;2022-10-26T07:33:13;15.80;99.90
61151;DHT22;47029;50.994;2.876;2022-10-26T07:35:39;15.90;99.90
61151;DHT22;47029;50.994;2.876;2022-10-26T07:38:09;16.00;99.90
61151;DHT22;47029;50.994;2.876;2022-10-26T07:40:36;16.10;99.90
61151;DHT22;47029;50.994;2.876;2022-10-26T07:43:02;16.20;99.90
61151;DHT22;47029;50.994;2.876;2022-10-26T07:45:29;16.30;99.90
61151;DHT22;47029;50.994;2.876;2022-10-26T07:47:55;16.30;99.90
61151;DHT22;47029;50.994;2.876;2022-10-26T07:50:22;16.20;99.90
61151;DHT22;47029;50.994;2.876;2022-10-26T07:52:48;16.20;99.90
61151;DHT22;47029;50.994;2.876;2022-10-26T07:55:34;16.30;99.90
61151;DHT22;47029;50.994;2.876;2022-10-26T07:58:00;16.30;99.90
61151;DHT22;47029;50.994;2.876;2022-10-26T08:00:26;16.20;99.90
61151;DHT22;47029;50.994;2.876;2022-10-26T08:02:53;16.30;99.90
61151;DHT22;47029;50.994;2.876;2022-10-26T08:05:21;16.50;99.90
61151;DHT22;47029;50.994;2.876;2022-10-26T08:07:47;16.60;99.90
61151;DHT22;47029;50.994;2.876;2022-10-26T08:10:14;16.50;99.90
61151;DHT22;47029;50.994;2.876;2022-10-26T08:12:43;16.40;99.90
61151;DHT22;47029;50.994;2.876;2022-10-26T08:15:10;16.60;99.90
61151;DHT22;47029;50.994;2.876;2022-10-26T08:17:36;16.60;99.90
61151;DHT22;47029;50.994;2.876;2022-10-26T08:20:02;16.70;99.90
61151;DHT22;47029;50.994;2.876;2022-10-26T08:22:29;16.80;99.90
61151;DHT22;47029;50.994;2.876;2022-10-26T08:24:57;16.90;99.90
61151;DHT22;47029;50.994;2.876;2022-10-26T08:27:25;16.90;99.90
61151;DHT22;47029;50.994;2.876;2022-10-26T08:29:51;16.90;99.90
61151;DHT22;47029;50.994;2.876;2022-10-26T08:32:18;16.90;99.90
61151;DHT22;47029;50.994;2.876;2022-10-26T08:34:44;16.80;99.90
61151;DHT22;47029;50.994;2.876;2022-10-26T08:37:09;16.90;99.90
61151;DHT22;47029;50.994;2.876;2022-10-26T08:39:39;16.70;99.90
61151;DHT22;47029;50.994;2.876;2022-10-26T08:42:15;16.70;99.90
61151;DHT22;47029;50.994;2.876;2022-10-26T08:44:45;16.80;99.90
61151;DHT22;47029;50.994;2.876;2022-10-26T08:47:21;17.00;99.90
61151;DHT22;47029;50.994;2.876;2022-10-26T08:50:09;17.20;99.90
61151;DHT22;47029;50.994;2.876;2022-10-26T08:55:25;17.30;99.90
61151;DHT22;47029;50.994;2.876;2022-10-26T08:57:54;17.30;99.90
61151;DHT22;47029;50.994;2.876;2022-10-26T09:00:22;17.40;99.90
61151;DHT22;47029;50.994;2.876;2022-10-26T09:02:52;17.50;99.90
61151;DHT22;47029;50.994;2.876;2022-10-26T09:05:31;17.20;99.90
61151;DHT22;47029;50.994;2.876;2022-10-26T09:08:14;17.20;99.90
61151;DHT22;47029;50.994;2.876;2022-10-26T09:10:53;17.30;99.90
61151;DHT22;47029;50.994;2.876;2022-10-26T09:13:27;17.50;99.90
61151;DHT22;47029;50.994;2.876;2022-10-26T09:16:22;17.70;99.90
61151;DHT22;47029;50.994;2.876;2022-10-26T09:24:48;17.70;99.90
61151;DHT22;47029;50.994;2.876;2022-10-26T09:27:23;17.70;99.90
61151;DHT22;47029;50.994;2.876;2022-10-26T09:29:58;17.90;99.90
61151;DHT22;47029;50.994;2.876;2022-10-26T09:32:35;17.90;99.90
61151;DHT22;47029;50.994;2.876;2022-10-26T09:35:08;17.90;99.90
61151;DHT22;47029;50.994;2.876;2022-10-26T09:37:45;18.10;99.90
61151;DHT22;47029;50.994;2.876;2022-10-26T09:43:02;18.10;99.90
61151;DHT22;47029;50.994;2.876;2022-10-26T09:45:36;18.20;99.90
61151;DHT22;47029;50.994;2.876;2022-10-26T09:48:13;18.30;99.90
61151;DHT22;47029;50.994;2.876;2022-10-26T09:50:47;18.30;99.90
61151;DHT22;47029;50.994;2.876;2022-10-26T09:53:15;18.40;99.90
61151;DHT22;47029;50.994;2.876;2022-10-26T09:55:44;18.40;99.90
61151;DHT22;47029;50.994;2.876;2022-10-26T09:58:19;18.40;99.90
61151;DHT22;47029;50.994;2.876;2022-10-26T10:00:49;18.30;99.90
61151;DHT22;47029;50.994;2.876;2022-10-26T10:03:27;18.40;99.90
61151;DHT22;47029;50.994;2.876;2022-10-26T10:06:17;18.40;99.90
61151;DHT22;47029;50.994;2.876;2022-10-26T10:09:20;18.30;99.90
61151;DHT22;47029;50.994;2.876;2022-10-26T10:12:02;18.40;99.90
61151;DHT22;47029;50.994;2.876;2022-10-26T10:14:40;18.30;99.90
61151;DHT22;47029;50.994;2.876;2022-10-26T10:17:20;18.30;99.90
61151;DHT22;47029;50.994;2.876;2022-10-26T10:20:06;18.40;99.90
61151;DHT22;47029;50.994;2.876;2022-10-26T10:22:32;18.60;99.90
61151;DHT22;47029;50.994;2.876;2022-10-26T10:25:22;18.60;99.90
61151;DHT22;47029;50.994;2.876;2022-10-26T10:27:57;18.60;99.90
61151;DHT22;47029;50.994;2.876;2022-10-26T10:30:31;18.60;99.90
61151;DHT22;47029;50.994;2.876;2022-10-26T10:33:13;18.60;99.90
61151;DHT22;47029;50.994;2.876;2022-10-26T10:35:48;18.60;99.90
61151;DHT22;47029;50.994;2.876;2022-10-26T10:38:20;18.70;99.90
61151;DHT22;47029;50.994;2.876;2022-10-26T10:44:03;18.90;99.90
61151;DHT22;47029;50.994;2.876;2022-10-26T10:46:30;18.80;99.90
61151;DHT22;47029;50.994;2.876;2022-10-26T10:49:23;18.90;99.90
61151;DHT22;47029;50.994;2.876;2022-10-26T10:51:50;19.00;99.90
61151;DHT22;47029;50.994;2.876;2022-10-26T10:54:48;18.90;99.90
61151;DHT22;47029;50.994;2.876;2022-10-26T11:00:47;19.20;99.90
61151;DHT22;47029;50.994;2.876;2022-10-26T11:03:44;19.40;99.90
61151;DHT22;47029;50.994;2.876;2022-10-26T11:06:22;19.30;99.90
61151;DHT22;47029;50.994;2.876;2022-10-26T11:09:01;19.40;99.90
61151;DHT22;47029;50.994;2.876;2022-10-26T11:11:53;19.40;99.90
61151;DHT22;47029;50.994;2.876;2022-10-26T11:14:27;18.90;99.90
61151;DHT22;47029;50.994;2.876;2022-10-26T11:20:21;19.70;99.90
61151;DHT22;47029;50.994;2.876;2022-10-26T11:23:22;19.00;99.90
61151;DHT22;47029;50.994;2.876;2022-10-26T11:26:04;19.70;99.90
61151;DHT22;47029;50.994;2.876;2022-10-26T11:31:24;19.70;99.90
61151;DHT22;47029;50.994;2.876;2022-10-26T11:36:36;19.80;99.90
61151;DHT22;47029;50.994;2.876;2022-10-26T11:42:00;18.70;99.90
61151;DHT22;47029;50.994;2.876;2022-10-26T11:44:54;20.10;99.90
61151;DHT22;47029;50.994;2.876;2022-10-26T11:47:41;21.60;99.90
61151;DHT22;47029;50.994;2.876;2022-10-26T11:50:17;19.50;99.90
61151;DHT22;47029;50.994;2.876;2022-10-26T11:52:53;19.90;99.90
61151;DHT22;47029;50.994;2.876;2022-10-26T11:55:33;19.50;99.90
61151;DHT22;47029;50.994;2.876;2022-10-26T11:58:08;20.10;99.90
61151;DHT22;47029;50.994;2.876;2022-10-26T12:00:52;20.50;99.90
61151;DHT22;47029;50.994;2.876;2022-10-26T12:03:38;20.50;99.90
61151;DHT22;47029;50.994;2.876;2022-10-26T12:06:08;20.50;99.90
61151;DHT22;47029;50.994;2.876;2022-10-26T12:09:26;20.40;99.90
61151;DHT22;47029;50.994;2.876;2022-10-26T12:14:43;20.30;99.90
61151;DHT22;47029;50.994;2.876;2022-10-26T12:17:29;20.20;99.90
61151;DHT22;47029;50.994;2.876;2022-10-26T12:22:50;20.30;99.90
61151;DHT22;47029;50.994;2.876;2022-10-26T12:27:48;20.20;99.90
61151;DHT22;47029;50.994;2.876;2022-10-26T12:35:37;20.50;99.90
61151;DHT22;47029;50.994;2.876;2022-10-26T12:43:32;20.60;99.90
61151;DHT22;47029;50.994;2.876;2022-10-26T12:48:48;20.70;99.90
61151;DHT22;47029;50.994;2.876;2022-10-26T12:56:35;20.80;99.90
61151;DHT22;47029;50.994;2.876;2022-10-26T13:01:56;20.70;99.90
61151;DHT22;47029;50.994;2.876;2022-10-26T13:07:21;20.40;99.90
61151;DHT22;47029;50.994;2.876;2022-10-26T13:10:21;20.40;99.90
61151;DHT22;47029;50.994;2.876;2022-10-26T13:12:55;20.50;99.90
61151;DHT22;47029;50.994;2.876;2022-10-26T13:18:00;20.40;99.90
61151;DHT22;47029;50.994;2.876;2022-10-26T13:20:30;20.40;99.90
61151;DHT22;47029;50.994;2.876;2022-10-26T13:23:01;20.40;99.90
61151;DHT22;47029;50.994;2.876;2022-10-26T13:25:31;20.40;99.90
61151;DHT22;47029;50.994;2.876;2022-10-26T13:28:45;20.60;99.90
61151;DHT22;47029;50.994;2.876;2022-10-26T13:36:46;20.60;99.90
61151;DHT22;47029;50.994;2.876;2022-10-26T13:39:31;20.70;99.90
61151;DHT22;47029;50.994;2.876;2022-10-26T13:41:59;20.60;99.90
61151;DHT22;47029;50.994;2.876;2022-10-26T13:44:37;20.60;99.90
61151;DHT22;47029;50.994;2.876;2022-10-26T13:47:10;20.50;99.90
61151;DHT22;47029;50.994;2.876;2022-10-26T13:49:40;20.50;99.90
61151;DHT22;47029;50.994;2.876;2022-10-26T13:52:27;20.50;99.90
61151;DHT22;47029;50.994;2.876;2022-10-26T13:55:00;20.60;99.90
61151;DHT22;47029;50.994;2.876;2022-10-26T13:57:43;20.60;99.90
61151;DHT22;47029;50.994;2.876;2022-10-26T14:00:19;20.50;99.90
61151;DHT22;47029;50.994;2.876;2022-10-26T14:02:48;20.50;99.90
61151;DHT22;47029;50.994;2.876;2022-10-26T14:05:17;20.50;99.90
61151;DHT22;47029;50.994;2.876;2022-10-26T14:07:47;20.50;99.90
61151;DHT22;47029;50.994;2.876;2022-10-26T14:10:29;20.50;99.90
61151;DHT22;47029;50.994;2.876;2022-10-26T14:12:59;20.40;99.90
61151;DHT22;47029;50.994;2.876;2022-10-26T14:15:30;20.50;99.90
61151;DHT22;47029;50.994;2.876;2022-10-26T14:18:00;20.40;99.90
61151;DHT22;47029;50.994;2.876;2022-10-26T14:20:27;20.50;99.90
61151;DHT22;47029;50.994;2.876;2022-10-26T14:22:56;20.50;99.90
61151;DHT22;47029;50.994;2.876;2022-10-26T14:25:27;20.50;99.90
61151;DHT22;47029;50.994;2.876;2022-10-26T14:27:53;20.40;99.90
61151;DHT22;47029;50.994;2.876;2022-10-26T14:30:28;20.40;99.90
61151;DHT22;47029;50.994;2.876;2022-10-26T14:32:57;20.30;99.90
61151;DHT22;47029;50.994;2.876;2022-10-26T14:35:32;20.30;99.90
61151;DHT22;47029;50.994;2.876;2022-10-26T14:38:23;20.40;99.90
61151;DHT22;47029;50.994;2.876;2022-10-26T14:40:57;20.30;99.90
61151;DHT22;47029;50.994;2.876;2022-10-26T14:43:25;20.40;99.90
61151;DHT22;47029;50.994;2.876;2022-10-26T14:45:52;20.50;99.90
61151;DHT22;47029;50.994;2.876;2022-10-26T14:48:22;20.50;99.90
61151;DHT22;47029;50.994;2.876;2022-10-26T14:51:17;20.30;99.90
61151;DHT22;47029;50.994;2.876;2022-10-26T14:53:52;20.40;99.90
61151;DHT22;47029;50.994;2.876;2022-10-26T14:56:30;20.40;99.90
61151;DHT22;47029;50.994;2.876;2022-10-26T15:02:03;20.30;99.90
61151;DHT22;47029;50.994;2.876;2022-10-26T15:09:48;20.40;99.90
61151;DHT22;47029;50.994;2.876;2022-10-26T15:12:33;20.40;99.90
61151;DHT22;47029;50.994;2.876;2022-10-26T15:15:17;20.50;99.90
61151;DHT22;47029;50.994;2.876;2022-10-26T15:17:59;20.40;99.90
61151;DHT22;47029;50.994;2.876;2022-10-26T15:20:27;20.30;99.90
61151;DHT22;47029;50.994;2.876;2022-10-26T15:22:57;20.20;99.90
61151;DHT22;47029;50.994;2.876;2022-10-26T15:25:30;19.00;99.90
61151;DHT22;47029;50.994;2.876;2022-10-26T15:28:09;20.10;99.90
61151;DHT22;47029;50.994;2.876;2022-10-26T15:30:35;20.20;99.90
61151;DHT22;47029;50.994;2.876;2022-10-26T15:33:20;20.10;99.90
61151;DHT22;47029;50.994;2.876;2022-10-26T15:35:46;20.20;99.90
61151;DHT22;47029;50.994;2.876;2022-10-26T15:38:14;20.20;99.90
61151;DHT22;47029;50.994;2.876;2022-10-26T15:40:42;20.30;99.90
61151;DHT22;47029;50.994;2.876;2022-10-26T15:43:10;20.30;99.90
61151;DHT22;47029;50.994;2.876;2022-10-26T15:45:45;20.40;99.90
61151;DHT22;47029;50.994;2.876;2022-10-26T15:48:26;20.40;99.90
61151;DHT22;47029;50.994;2.876;2022-10-26T15:50:57;20.40;99.90
61151;DHT22;47029;50.994;2.876;2022-10-26T15:53:25;20.20;99.90
61151;DHT22;47029;50.994;2.876;2022-10-26T15:55:57;20.10;99.90
61151;DHT22;47029;50.994;2.876;2022-10-26T15:58:24;20.10;99.90
61151;DHT22;47029;50.994;2.876;2022-10-26T16:00:51;20.10;99.90
61151;DHT22;47029;50.994;2.876;2022-10-26T16:03:24;20.10;99.90
61151;DHT22;47029;50.994;2.876;2022-10-26T16:06:01;20.00;99.90
61151;DHT22;47029;50.994;2.876;2022-10-26T16:08:29;20.00;99.90
61151;DHT22;47029;50.994;2.876;2022-10-26T16:10:56;19.90;99.90
61151;DHT22;47029;50.994;2.876;2022-10-26T16:13:22;19.90;99.90
61151;DHT22;47029;50.994;2.876;2022-10-26T16:15:48;20.00;99.90
61151;DHT22;47029;50.994;2.876;2022-10-26T16:18:14;20.00;99.90
61151;DHT22;47029;50.994;2.876;2022-10-26T16:20:40;19.70;99.90
61151;DHT22;47029;50.994;2.876;2022-10-26T16:23:06;19.70;99.90
61151;DHT22;47029;50.994;2.876;2022-10-26T16:25:40;19.60;99.90
61151;DHT22;47029;50.994;2.876;2022-10-26T16:28:07;19.60;99.90
61151;DHT22;47029;50.994;2.876;2022-10-26T16:30:34;19.70;99.90
61151;DHT22;47029;50.994;2.876;2022-10-26T16:33:01;19.50;99.90
61151;DHT22;47029;50.994;2.876;2022-10-26T16:35:26;19.50;99.90
61151;DHT22;47029;50.994;2.876;2022-10-26T16:37:52;19.40;99.90
61151;DHT22;47029;50.994;2.876;2022-10-26T16:40:18;19.50;99.90
61151;DHT22;47029;50.994;2.876;2022-10-26T16:42:45;19.50;99.90
61151;DHT22;47029;50.994;2.876;2022-10-26T16:45:12;19.50;99.90
61151;DHT22;47029;50.994;2.876;2022-10-26T16:47:38;19.40;99.90
61151;DHT22;47029;50.994;2.876;2022-10-26T16:50:05;19.30;99.90
61151;DHT22;47029;50.994;2.876;2022-10-26T16:52:32;19.50;99.90
61151;DHT22;47029;50.994;2.876;2022-10-26T16:54:58;19.40;99.90
61151;DHT22;47029;50.994;2.876;2022-10-26T16:57:24;19.40;99.90
61151;DHT22;47029;50.994;2.876;2022-10-26T16:59:50;19.30;99.90
61151;DHT22;47029;50.994;2.876;2022-10-26T17:02:15;19.40;99.90
61151;DHT22;47029;50.994;2.876;2022-10-26T17:04:41;18.40;99.90
61151;DHT22;47029;50.994;2.876;2022-10-26T17:07:08;19.40;99.90
61151;DHT22;47029;50.994;2.876;2022-10-26T17:09:35;19.30;99.90
61151;DHT22;47029;50.994;2.876;2022-10-26T17:12:02;19.30;99.90
61151;DHT22;47029;50.994;2.876;2022-10-26T17:14:28;19.40;99.90
61151;DHT22;47029;50.994;2.876;2022-10-26T17:16:54;19.50;99.90
61151;DHT22;47029;50.994;2.876;2022-10-26T17:19:19;19.60;99.90
61151;DHT22;47029;50.994;2.876;2022-10-26T17:21:45;19.60;99.90
61151;DHT22;47029;50.994;2.876;2022-10-26T17:24:11;19.50;99.90
61151;DHT22;47029;50.994;2.876;2022-10-26T17:26:38;19.20;99.90
61151;DHT22;47029;50.994;2.876;2022-10-26T17:29:04;19.20;99.90
61151;DHT22;47029;50.994;2.876;2022-10-26T17:31:31;19.00;99.90
61151;DHT22;47029;50.994;2.876;2022-10-26T17:33:57;19.00;99.90
61151;DHT22;47029;50.994;2.876;2022-10-26T17:36:24;18.90;99.90
61151;DHT22;47029;50.994;2.876;2022-10-26T17:38:52;18.90;99.90
61151;DHT22;47029;50.994;2.876;2022-10-26T17:41:20;18.90;99.90
61151;DHT22;47029;50.994;2.876;2022-10-26T17:43:47;19.10;99.90
61151;DHT22;47029;50.994;2.876;2022-10-26T17:46:16;19.10;99.90
61151;DHT22;47029;50.994;2.876;2022-10-26T17:48:43;19.10;99.90
61151;DHT22;47029;50.994;2.876;2022-10-26T17:51:12;18.40;99.90
61151;DHT22;47029;50.994;2.876;2022-10-26T17:53:38;19.10;99.90
61151;DHT22;47029;50.994;2.876;2022-10-26T17:56:05;19.10;99.90
61151;DHT22;47029;50.994;2.876;2022-10-26T17:58:32;19.10;99.90
61151;DHT22;47029;50.994;2.876;2022-10-26T18:01:00;18.90;99.90
61151;DHT22;47029;50.994;2.876;2022-10-26T18:03:27;18.90;99.90
61151;DHT22;47029;50.994;2.876;2022-10-26T18:05:53;18.80;99.90
61151;DHT22;47029;50.994;2.876;2022-10-26T18:08:19;18.90;99.90
61151;DHT22;47029;50.994;2.876;2022-10-26T18:10:51;18.90;99.90
61151;DHT22;47029;50.994;2.876;2022-10-26T18:13:17;18.80;99.90
61151;DHT22;47029;50.994;2.876;2022-10-26T18:15:43;18.90;99.90
61151;DHT22;47029;50.994;2.876;2022-10-26T18:18:10;18.90;99.90
61151;DHT22;47029;50.994;2.876;2022-10-26T18:20:36;18.80;99.90
61151;DHT22;47029;50.994;2.876;2022-10-26T18:23:02;18.90;99.90
61151;DHT22;47029;50.994;2.876;2022-10-26T18:25:28;19.00;99.90
61151;DHT22;47029;50.994;2.876;2022-10-26T18:27:54;19.10;99.90
61151;DHT22;47029;50.994;2.876;2022-10-26T18:30:20;19.20;99.90
61151;DHT22;47029;50.994;2.876;2022-10-26T18:32:50;19.30;99.90
61151;DHT22;47029;50.994;2.876;2022-10-26T18:35:16;19.30;99.90
61151;DHT22;47029;50.994;2.876;2022-10-26T18:37:43;19.20;99.90
61151;DHT22;47029;50.994;2.876;2022-10-26T18:40:10;19.10;99.90